Terminal Aerodrome Forecast
Issued by NWS Birmingham, AL

Home | Current Version | Previous Version | Text Only | Print | Product List | Glossary On
Versions: 1 2 3 4 5 6 7 8 9 10 11 12 13 14 15 16
000
FTUS44 KBMX 251132
TAFBHM
TAF
KBHM 251132Z 2512/2612 17003KT P6SM FEW250
     FM251800 14006KT P6SM VCTS SCT050CB SCT250
     FM260100 10003KT P6SM SCT250=

USA.gov is the U.S. government's official web portal to all federal, state and local government web resources and services.